createdAt,value
2022-11-21T00:01:18.542Z,2.40
2022-11-21T00:03:46.095Z,2.85
2022-11-21T00:06:14.341Z,1.95
2022-11-21T00:08:44.708Z,1.58
2022-11-21T00:11:12.795Z,1.45
2022-11-21T00:13:40.479Z,1.95
2022-11-21T00:16:11.924Z,3.83
2022-11-21T00:18:40.584Z,3.67
2022-11-21T00:21:13.790Z,1.30
2022-11-21T00:23:42.212Z,1.52
2022-11-21T00:26:10.945Z,2.15
2022-11-21T00:28:38.361Z,2.38
2022-11-21T00:31:06.884Z,1.63
2022-11-21T00:33:39.102Z,2.05
2022-11-21T00:36:10.272Z,2.28
2022-11-21T00:38:37.876Z,1.85
2022-11-21T00:41:05.787Z,1.50
2022-11-21T00:43:33.699Z,3.08
2022-11-21T00:46:03.048Z,1.08
2022-11-21T00:48:31.871Z,1.65
2022-11-21T00:51:01.961Z,1.30
2022-11-21T00:53:30.070Z,1.95
2022-11-21T00:55:58.019Z,1.98
2022-11-21T00:58:27.078Z,1.50
2022-11-21T01:01:06.332Z,1.83
2022-11-21T01:03:36.844Z,3.13
2022-11-21T01:06:07.996Z,1.20
2022-11-21T01:08:37.829Z,1.83
2022-11-21T01:11:10.350Z,1.65
2022-11-21T01:13:38.515Z,1.50
2022-11-21T01:16:09.023Z,1.52
2022-11-21T01:18:40.163Z,2.40
2022-11-21T01:21:14.203Z,1.05
2022-11-21T01:23:41.800Z,1.25
2022-11-21T01:26:18.616Z,1.52
2022-11-21T01:28:46.678Z,1.27
2022-11-21T01:31:20.072Z,1.17
2022-11-21T01:36:26.498Z,1.65
2022-11-21T01:39:02.371Z,1.38
2022-11-21T01:41:35.281Z,1.67
2022-11-21T01:44:49.949Z,1.35
2022-11-21T01:47:17.888Z,1.73
2022-11-21T01:49:47.030Z,2.80
2022-11-21T01:52:31.355Z,2.33
2022-11-21T01:55:06.295Z,2.42
2022-11-21T01:57:41.001Z,2.30
2022-11-21T02:00:17.992Z,1.45
2022-11-21T02:02:56.236Z,1.00
2022-11-21T02:05:28.168Z,2.60
2022-11-21T02:08:07.739Z,1.30
2022-11-21T02:10:38.757Z,1.63
2022-11-21T02:13:06.377Z,1.83
2022-11-21T02:15:33.902Z,1.33
2022-11-21T02:18:01.339Z,1.88
2022-11-21T02:20:29.716Z,1.77
2022-11-21T02:23:05.999Z,1.77
2022-11-21T02:25:41.427Z,1.38
2022-11-21T02:28:15.686Z,1.55
2022-11-21T02:30:44.017Z,1.10
2022-11-21T02:33:12.738Z,1.52
2022-11-21T02:35:40.334Z,2.00
2022-11-21T02:38:24.092Z,1.52
2022-11-21T02:41:12.109Z,1.40
2022-11-21T02:43:51.374Z,1.27
2022-11-21T02:46:18.723Z,1.15
2022-11-21T02:48:46.886Z,2.08
2022-11-21T02:51:14.372Z,1.77
2022-11-21T02:53:44.525Z,1.27
2022-11-21T02:56:12.030Z,2.08
2022-11-21T02:58:39.714Z,1.15
2022-11-21T03:01:09.795Z,0.80
2022-11-21T03:03:37.344Z,1.10
2022-11-21T03:06:04.821Z,1.67
2022-11-21T03:08:32.199Z,1.85
2022-11-21T03:11:00.561Z,1.63
2022-11-21T03:13:28.089Z,0.77
2022-11-21T03:15:55.542Z,1.42
2022-11-21T03:18:25.335Z,1.45
2022-11-21T03:20:55.089Z,1.10
2022-11-21T03:23:25.556Z,1.60
2022-11-21T03:25:55.553Z,4.13
2022-11-21T03:28:23.118Z,1.15
2022-11-21T03:30:50.575Z,1.77
2022-11-21T03:33:18.156Z,0.80
2022-11-21T03:35:47.672Z,0.95
2022-11-21T03:38:15.221Z,0.82
2022-11-21T03:40:42.806Z,0.65
2022-11-21T03:43:12.451Z,1.10
2022-11-21T03:45:42.168Z,0.85
2022-11-21T03:48:09.543Z,1.30
2022-11-21T03:50:39.210Z,0.82
2022-11-21T03:53:06.680Z,0.80
2022-11-21T03:55:36.366Z,1.15
2022-11-21T03:58:03.775Z,1.10
2022-11-21T04:00:31.204Z,1.48
2022-11-21T04:02:58.967Z,2.00
2022-11-21T04:05:27.431Z,0.73
2022-11-21T04:07:54.840Z,1.52
2022-11-21T04:10:24.241Z,0.77
2022-11-21T04:12:54.219Z,0.73
2022-11-21T04:15:26.471Z,1.02
2022-11-21T04:17:53.938Z,0.50
2022-11-21T04:20:21.538Z,1.15
2022-11-21T04:22:51.006Z,1.00
2022-11-21T04:25:22.212Z,0.68
2022-11-21T04:27:49.633Z,0.88
2022-11-21T04:34:42.768Z,1.65
2022-11-21T04:37:12.298Z,1.10
2022-11-21T04:39:39.909Z,1.08
2022-11-21T04:42:07.239Z,0.90
2022-11-21T04:44:34.685Z,1.05
2022-11-21T04:47:05.301Z,1.13
2022-11-21T04:52:02.689Z,0.88
2022-11-21T04:54:31.299Z,1.63
2022-11-21T04:56:58.965Z,2.00
2022-11-21T04:59:26.241Z,1.05
2022-11-21T05:01:53.778Z,1.48
2022-11-21T05:04:21.214Z,0.73
2022-11-21T05:06:50.838Z,2.17
2022-11-21T05:09:18.281Z,1.20
2022-11-21T05:12:04.277Z,1.52
2022-11-21T05:14:31.611Z,0.63
2022-11-21T05:16:59.177Z,1.05
2022-11-21T05:19:26.423Z,1.42
2022-11-21T05:21:53.955Z,2.75
2022-11-21T05:24:21.491Z,3.03
2022-11-21T05:26:48.949Z,1.50
2022-11-21T05:29:17.045Z,1.67
2022-11-21T05:31:44.834Z,2.10
2022-11-21T05:34:12.347Z,1.42
2022-11-21T05:36:39.744Z,8.63
2022-11-21T05:39:07.370Z,2.25
2022-11-21T05:41:34.782Z,3.00
2022-11-21T05:44:02.298Z,3.45
2022-11-21T05:46:29.770Z,3.20
2022-11-21T05:48:57.250Z,2.05
2022-11-21T05:51:24.920Z,2.20
2022-11-21T05:53:52.346Z,2.90
2022-11-21T05:56:22.371Z,5.25
2022-11-21T05:58:49.772Z,3.20
2022-11-21T06:01:37.521Z,2.92
2022-11-21T06:04:07.372Z,4.05
2022-11-21T06:06:36.450Z,3.05
2022-11-21T06:09:05.334Z,3.35
2022-11-21T06:11:32.723Z,3.90
2022-11-21T06:14:00.193Z,3.60
2022-11-21T06:16:27.774Z,5.65
2022-11-21T06:18:58.838Z,3.13
2022-11-21T06:21:29.640Z,3.45
2022-11-21T06:24:02.232Z,5.95
2022-11-21T06:26:29.831Z,3.80
2022-11-21T06:28:57.461Z,3.25
2022-11-21T06:31:27.020Z,3.30
2022-11-21T06:33:59.197Z,4.15
2022-11-21T06:36:27.889Z,3.03
2022-11-21T06:38:56.347Z,2.80
2022-11-21T06:41:30.976Z,3.60
2022-11-21T06:44:01.897Z,4.20
2022-11-21T06:46:29.768Z,3.80
2022-11-21T06:48:57.356Z,9.18
2022-11-21T06:51:25.137Z,4.28
2022-11-21T06:53:58.244Z,3.80
2022-11-21T06:56:30.320Z,7.43
2022-11-21T06:58:58.106Z,2.85
2022-11-21T07:01:27.024Z,4.15
2022-11-21T07:03:54.645Z,2.47
2022-11-21T07:06:22.462Z,5.63
2022-11-21T07:09:17.670Z,1.70
2022-11-21T07:11:45.427Z,2.92
2022-11-21T07:14:12.902Z,4.20
2022-11-21T07:16:40.390Z,3.20
2022-11-21T07:19:07.988Z,3.75
2022-11-21T07:21:35.549Z,4.15
2022-11-21T07:24:03.307Z,3.70
2022-11-21T07:26:30.778Z,4.85
2022-11-21T07:28:58.775Z,4.40
2022-11-21T07:31:26.281Z,4.50
2022-11-21T07:33:53.560Z,2.47
2022-11-21T07:36:21.017Z,2.85
2022-11-21T07:38:48.609Z,4.00
2022-11-21T07:41:15.962Z,4.03
2022-11-21T07:43:43.463Z,3.80
2022-11-21T07:46:10.889Z,6.45
2022-11-21T07:48:38.351Z,3.55
2022-11-21T07:51:08.015Z,2.90
2022-11-21T07:53:35.403Z,2.45
2022-11-21T07:56:04.912Z,2.97
2022-11-21T07:58:32.354Z,3.90
2022-11-21T08:01:04.321Z,4.55
2022-11-21T08:03:35.338Z,3.22
2022-11-21T08:06:06.656Z,3.80
2022-11-21T08:08:35.354Z,3.83
2022-11-21T08:11:07.702Z,2.97
2022-11-21T08:13:35.560Z,3.87
2022-11-21T08:16:04.589Z,2.20
2022-11-21T08:18:32.319Z,3.70
2022-11-21T08:21:03.524Z,4.13
2022-11-21T08:23:33.604Z,3.40
2022-11-21T08:26:01.112Z,3.15
2022-11-21T08:28:28.977Z,5.40
2022-11-21T08:30:56.439Z,7.88
2022-11-21T08:33:23.970Z,8.18
2022-11-21T08:35:51.501Z,12.55
2022-11-21T08:38:21.119Z,16.35
2022-11-21T08:41:16.239Z,11.40
2022-11-21T08:43:45.318Z,8.70
2022-11-21T08:46:12.690Z,11.50
2022-11-21T08:48:40.230Z,10.43
2022-11-21T08:51:07.558Z,10.10
2022-11-21T08:53:35.172Z,7.25
2022-11-21T08:56:04.351Z,11.48
2022-11-21T08:58:32.300Z,6.80
2022-11-21T09:01:00.631Z,6.80
2022-11-21T09:03:31.093Z,8.43
2022-11-21T09:06:00.406Z,5.75
2022-11-21T09:08:29.734Z,6.03
2022-11-21T09:10:57.541Z,5.72
2022-11-21T09:13:26.111Z,6.75
2022-11-21T09:16:14.249Z,6.43
2022-11-21T09:18:45.370Z,8.20
2022-11-21T09:21:17.727Z,5.82
2022-11-21T09:23:45.315Z,4.50
2022-11-21T09:26:12.865Z,4.25
2022-11-21T09:28:43.404Z,5.90
2022-11-21T09:31:11.146Z,6.05
2022-11-21T09:33:38.751Z,5.43
2022-11-21T09:36:06.640Z,5.95
2022-11-21T09:38:34.433Z,3.40
2022-11-21T09:41:48.044Z,6.25
2022-11-21T09:44:39.101Z,4.10
2022-11-21T09:47:26.231Z,5.72
2022-11-21T09:50:12.251Z,4.93
2022-11-21T09:52:51.600Z,7.82
2022-11-21T09:55:56.113Z,7.50
2022-11-21T09:58:41.904Z,5.13
2022-11-21T10:01:13.827Z,6.07
2022-11-21T10:03:50.885Z,3.58
2022-11-21T10:06:29.342Z,4.95
2022-11-21T10:09:25.360Z,5.40
2022-11-21T10:12:27.208Z,4.95
2022-11-21T10:15:31.995Z,4.20
2022-11-21T10:18:23.713Z,5.45
2022-11-21T10:21:18.636Z,3.70
2022-11-21T10:24:21.036Z,3.65
2022-11-21T10:26:55.063Z,5.30
2022-11-21T10:29:28.516Z,5.55
2022-11-21T10:32:01.462Z,4.43
2022-11-21T10:34:38.018Z,6.05
2022-11-21T10:37:20.362Z,4.22
2022-11-21T10:39:51.379Z,3.25
2022-11-21T10:42:40.435Z,3.67
2022-11-21T10:45:19.247Z,5.97
2022-11-21T10:47:49.232Z,3.83
2022-11-21T10:50:41.578Z,3.75
2022-11-21T10:53:35.340Z,4.18
2022-11-21T10:56:09.665Z,3.03
2022-11-21T10:58:48.182Z,3.50
2022-11-21T11:01:35.206Z,3.15
2022-11-21T11:04:28.506Z,4.32
2022-11-21T11:06:57.544Z,3.95
2022-11-21T11:09:33.327Z,4.65
2022-11-21T11:12:48.107Z,3.92
2022-11-21T11:15:27.234Z,3.45
2022-11-21T11:17:59.728Z,3.25
2022-11-21T11:20:33.719Z,3.42
2022-11-21T11:23:15.275Z,4.22
2022-11-21T11:25:51.849Z,4.38
2022-11-21T11:28:21.613Z,3.40
2022-11-21T11:30:52.561Z,4.05
2022-11-21T11:33:49.965Z,4.22
2022-11-21T11:36:52.792Z,4.03
2022-11-21T11:40:03.555Z,3.83
2022-11-21T11:43:12.163Z,4.63
2022-11-21T11:46:36.264Z,3.40
2022-11-21T11:49:24.192Z,6.55
2022-11-21T11:51:56.855Z,6.78
2022-11-21T11:54:34.755Z,6.53
2022-11-21T11:57:04.603Z,5.28
2022-11-21T11:59:37.351Z,9.07
2022-11-21T12:02:23.688Z,8.57
2022-11-21T12:04:56.794Z,6.95
2022-11-21T12:08:33.307Z,10.05
2022-11-21T12:10:26.713Z,5.75
2022-11-21T12:13:14.164Z,5.63
2022-11-21T12:15:52.790Z,4.55
2022-11-21T12:18:20.322Z,5.70
2022-11-21T12:21:03.025Z,5.28
2022-11-21T12:23:48.664Z,3.83
2022-11-21T12:26:40.657Z,3.05
2022-11-21T12:29:41.187Z,3.38
2022-11-21T12:32:49.056Z,4.75
2022-11-21T12:35:25.482Z,6.80
2022-11-21T12:38:28.917Z,4.60
2022-11-21T12:43:59.433Z,4.22
2022-11-21T12:46:39.731Z,3.55
2022-11-21T12:49:43.456Z,3.22
2022-11-21T12:52:38.774Z,3.33
2022-11-21T12:55:18.757Z,3.88
2022-11-21T12:58:10.824Z,3.13
2022-11-21T13:00:59.085Z,4.03
2022-11-21T13:03:46.050Z,3.38
2022-11-21T13:06:30.056Z,4.18
2022-11-21T13:09:02.772Z,3.35
2022-11-21T13:12:01.259Z,4.43
2022-11-21T13:14:53.244Z,3.42
2022-11-21T13:17:28.663Z,2.45
2022-11-21T13:20:14.573Z,4.07
2022-11-21T13:22:42.033Z,3.55
2022-11-21T13:25:38.296Z,4.85
2022-11-21T13:28:11.990Z,4.03
2022-11-21T13:30:48.441Z,2.63
2022-11-21T13:33:34.585Z,3.33
2022-11-21T13:36:11.464Z,2.38
2022-11-21T13:38:51.261Z,3.45
2022-11-21T13:41:55.566Z,4.88
2022-11-21T13:44:32.368Z,2.17
2022-11-21T13:47:14.786Z,1.90
2022-11-21T13:50:16.092Z,2.67
2022-11-21T13:53:20.701Z,2.03
2022-11-21T13:55:59.558Z,2.53
2022-11-21T13:58:47.039Z,4.97
2022-11-21T14:01:41.131Z,2.65
2022-11-21T14:04:08.904Z,3.13
2022-11-21T14:06:43.630Z,2.15
2022-11-21T14:09:14.138Z,5.20
2022-11-21T14:11:55.003Z,2.88
2022-11-21T14:14:25.331Z,2.38
2022-11-21T14:17:31.766Z,3.55
2022-11-21T14:20:09.496Z,3.85
2022-11-21T14:22:45.472Z,2.28
2022-11-21T14:25:20.085Z,4.00
2022-11-21T14:27:53.858Z,6.00
2022-11-21T14:30:30.579Z,2.95
2022-11-21T14:33:33.264Z,2.05
2022-11-21T14:36:09.070Z,3.05
2022-11-21T14:39:07.525Z,3.55
2022-11-21T14:41:39.350Z,4.88
2022-11-21T14:44:16.173Z,3.25
2022-11-21T14:46:45.004Z,3.08
2022-11-21T14:49:18.806Z,4.97
2022-11-21T14:52:04.267Z,5.93
2022-11-21T14:54:35.329Z,4.18
2022-11-21T14:57:07.127Z,3.53
2022-11-21T14:59:43.240Z,4.55
2022-11-21T15:02:22.238Z,4.43
2022-11-21T15:04:53.510Z,3.40
2022-11-21T15:10:30.003Z,3.90
2022-11-21T15:13:06.884Z,4.13
2022-11-21T15:15:41.706Z,4.10
2022-11-21T15:18:27.914Z,4.32
2022-11-21T15:20:59.203Z,4.05
2022-11-21T15:23:29.899Z,3.35
2022-11-21T15:28:56.359Z,4.22
2022-11-21T15:31:29.445Z,3.42
2022-11-21T15:34:34.369Z,3.50
2022-11-21T15:37:08.271Z,3.95
2022-11-21T15:39:36.179Z,3.10
2022-11-21T15:42:33.864Z,3.40
2022-11-21T15:45:28.200Z,4.63
2022-11-21T15:47:56.842Z,3.40
2022-11-21T15:50:25.128Z,5.07
2022-11-21T15:52:53.122Z,3.83
2022-11-21T15:55:26.091Z,4.22
2022-11-21T15:57:12.319Z,4.80
2022-11-21T15:57:15.408Z,5.85
2022-11-21T15:57:55.739Z,4.35
2022-11-21T16:00:23.310Z,4.10
2022-11-21T16:02:50.780Z,3.60
2022-11-21T16:05:18.320Z,2.97
2022-11-21T16:07:45.957Z,4.82
2022-11-21T16:10:21.334Z,5.10
2022-11-21T16:12:53.643Z,2.38
2022-11-21T16:15:21.393Z,3.85
2022-11-21T16:17:52.424Z,3.58
2022-11-21T16:20:22.046Z,4.10
2022-11-21T16:22:50.084Z,3.53
2022-11-21T16:25:18.035Z,2.90
2022-11-21T16:27:45.525Z,5.05
2022-11-21T16:30:13.552Z,3.67
2022-11-21T16:32:41.072Z,3.30
2022-11-21T16:35:08.792Z,3.88
2022-11-21T16:37:36.165Z,2.50
2022-11-21T16:40:06.689Z,3.58
2022-11-21T16:42:36.621Z,3.58
2022-11-21T16:45:04.429Z,4.22
2022-11-21T16:47:31.898Z,3.33
2022-11-21T16:49:59.443Z,3.80
2022-11-21T16:52:26.978Z,2.53
2022-11-21T16:54:54.517Z,3.33
2022-11-21T16:57:23.002Z,3.03
2022-11-21T16:59:52.450Z,3.08
2022-11-21T17:02:23.150Z,3.80
2022-11-21T17:04:52.286Z,2.95
2022-11-21T17:07:19.740Z,2.85
2022-11-21T17:09:49.808Z,2.30
2022-11-21T17:12:17.665Z,3.10
2022-11-21T17:14:47.228Z,3.65
2022-11-21T17:17:17.389Z,4.07
2022-11-21T17:19:44.779Z,4.15
2022-11-21T17:22:14.524Z,3.10
2022-11-21T17:24:44.556Z,6.25
2022-11-21T17:27:11.721Z,3.47
2022-11-21T17:29:38.939Z,6.32
2022-11-21T17:32:06.322Z,4.85
2022-11-21T17:34:33.641Z,5.90
2022-11-21T17:37:01.037Z,6.30
2022-11-21T17:39:30.180Z,4.47
2022-11-21T17:41:59.931Z,4.53
2022-11-21T17:44:32.204Z,5.88
2022-11-21T17:47:01.892Z,5.32
2022-11-21T17:49:37.012Z,5.15
2022-11-21T17:52:06.185Z,6.28
2022-11-21T17:54:33.318Z,5.88
2022-11-21T17:57:03.664Z,5.70
2022-11-21T17:59:31.130Z,4.50
2022-11-21T18:01:58.913Z,7.70
2022-11-21T18:04:26.251Z,4.25
2022-11-21T18:06:55.899Z,5.88
2022-11-21T18:09:23.365Z,5.50
2022-11-21T18:11:51.637Z,4.13
2022-11-21T18:14:18.935Z,5.10
2022-11-21T18:16:53.006Z,7.80
2022-11-21T18:19:21.209Z,7.68
2022-11-21T18:21:48.904Z,7.68
2022-11-21T18:24:16.197Z,5.35
2022-11-21T18:26:47.260Z,5.15
2022-11-21T18:32:15.313Z,8.65
2022-11-21T18:34:45.258Z,6.43
2022-11-21T18:37:14.942Z,5.00
2022-11-21T18:39:44.440Z,6.30
2022-11-21T18:42:11.612Z,7.03
2022-11-21T18:44:38.893Z,5.72
2022-11-21T18:47:19.732Z,7.95
2022-11-21T18:49:48.005Z,5.05
2022-11-21T18:52:15.399Z,4.28
2022-11-21T18:54:42.626Z,4.63
2022-11-21T18:57:09.894Z,5.78
2022-11-21T18:59:37.148Z,4.50
2022-11-21T19:02:04.527Z,6.70
2022-11-21T19:04:31.723Z,4.15
2022-11-21T19:06:59.061Z,4.95
2022-11-21T19:09:32.347Z,6.25
2022-11-21T19:12:00.187Z,4.38
2022-11-21T19:14:34.231Z,4.65
2022-11-21T19:17:01.393Z,7.15
2022-11-21T19:19:34.760Z,5.32
2022-11-21T19:22:04.732Z,5.22
2022-11-21T19:24:34.568Z,5.50
2022-11-21T19:27:02.011Z,4.63
2022-11-21T19:29:30.232Z,3.95
2022-11-21T19:31:57.794Z,4.38
2022-11-21T19:34:25.158Z,4.57
2022-11-21T19:36:53.050Z,5.60
2022-11-21T19:39:20.402Z,5.55
2022-11-21T19:41:50.946Z,3.92
2022-11-21T19:44:18.293Z,5.05
2022-11-21T19:46:45.567Z,5.95
2022-11-21T19:49:19.310Z,5.88
2022-11-21T19:51:46.727Z,4.20
2022-11-21T19:54:16.600Z,6.38
2022-11-21T19:56:43.859Z,5.38
2022-11-21T19:59:12.811Z,5.22
2022-11-21T20:01:40.342Z,5.05
2022-11-21T20:04:07.792Z,5.65
2022-11-21T20:06:38.210Z,4.60
2022-11-21T20:09:11.197Z,4.55
2022-11-21T20:11:40.184Z,3.90
2022-11-21T20:14:12.259Z,4.50
2022-11-21T20:16:46.027Z,4.45
2022-11-21T20:19:15.436Z,4.53
2022-11-21T20:21:45.665Z,7.20
2022-11-21T20:24:13.505Z,4.68
2022-11-21T20:26:44.521Z,4.15
2022-11-21T20:29:15.300Z,6.20
2022-11-21T20:31:45.196Z,4.15
2022-11-21T20:34:14.980Z,5.10
2022-11-21T20:36:46.542Z,5.22
2022-11-21T20:39:17.843Z,4.97
2022-11-21T20:41:48.238Z,7.25
2022-11-21T20:47:10.293Z,4.20
2022-11-21T20:49:37.533Z,4.82
2022-11-21T20:54:52.133Z,5.22
2022-11-21T20:57:21.447Z,4.90
2022-11-21T20:59:48.659Z,5.35
2022-11-21T21:02:15.947Z,4.85
2022-11-21T21:04:45.214Z,5.90
2022-11-21T21:07:12.552Z,5.85
2022-11-21T21:09:39.787Z,5.50
2022-11-21T21:12:07.262Z,6.10
2022-11-21T21:14:34.662Z,4.35
2022-11-21T21:17:01.890Z,6.07
2022-11-21T21:19:29.435Z,6.10
2022-11-21T21:22:01.850Z,6.33
2022-11-21T21:24:29.197Z,5.47
2022-11-21T21:26:56.407Z,6.38
2022-11-21T21:29:26.008Z,5.70
2022-11-21T21:31:53.240Z,4.72
2022-11-21T21:34:22.095Z,5.50
2022-11-21T21:36:49.844Z,4.55
2022-11-21T21:39:17.200Z,5.32
2022-11-21T21:41:46.140Z,6.10
2022-11-21T21:44:14.428Z,7.15
2022-11-21T21:46:44.921Z,5.40
2022-11-21T21:49:12.492Z,6.13
2022-11-21T21:51:40.019Z,6.30
2022-11-21T21:54:07.377Z,4.85
2022-11-21T21:56:34.660Z,6.03
2022-11-21T21:59:03.227Z,4.78
2022-11-21T22:01:32.814Z,5.78
2022-11-21T22:04:02.306Z,5.97
2022-11-21T22:06:35.454Z,5.75
2022-11-21T22:09:02.828Z,5.32
2022-11-21T22:11:32.792Z,6.03
2022-11-21T22:14:06.414Z,5.22
2022-11-21T22:16:33.811Z,4.75
2022-11-21T22:19:00.996Z,5.30
2022-11-21T22:21:32.525Z,5.20
2022-11-21T22:26:48.435Z,5.93
2022-11-21T22:29:15.633Z,5.75
2022-11-21T22:31:43.081Z,4.88
2022-11-21T22:34:13.003Z,7.75
2022-11-21T22:36:40.388Z,7.13
2022-11-21T22:39:07.773Z,5.50
2022-11-21T22:41:37.289Z,5.65
2022-11-21T22:44:04.540Z,6.85
2022-11-21T22:46:31.898Z,5.97
2022-11-21T22:48:59.348Z,4.82
2022-11-21T22:51:29.678Z,6.07
2022-11-21T22:53:57.545Z,5.45
2022-11-21T22:56:25.784Z,5.95
2022-11-21T22:58:54.104Z,6.25
2022-11-21T23:01:23.732Z,7.78
2022-11-21T23:03:51.599Z,5.05
2022-11-21T23:06:23.898Z,5.82
2022-11-21T23:08:52.411Z,5.47
2022-11-21T23:11:25.953Z,4.78
2022-11-21T23:13:53.749Z,5.35
2022-11-21T23:16:21.272Z,5.20
2022-11-21T23:18:48.969Z,5.65
2022-11-21T23:21:16.190Z,4.18
2022-11-21T23:23:51.136Z,5.40
2022-11-21T23:26:18.592Z,4.30
2022-11-21T23:28:45.813Z,4.47
2022-11-21T23:31:14.546Z,5.22
2022-11-21T23:33:41.921Z,4.03
2022-11-21T23:36:09.271Z,6.32
2022-11-21T23:38:36.986Z,4.35
2022-11-21T23:41:04.124Z,5.65
2022-11-21T23:43:31.259Z,4.60
2022-11-21T23:45:58.553Z,4.82
2022-11-21T23:48:25.807Z,4.35
2022-11-21T23:50:53.003Z,5.85
2022-11-21T23:53:23.011Z,6.53
2022-11-21T23:55:50.172Z,5.18
2022-11-21T23:58:20.219Z,5.20
